sensor_id;sensor_type;location;lat;lon;timestamp;temperature;humidity
4207;DHT22;2117;47.972;7.830;2023-03-14T00:01:00;11.00;99.90
4207;DHT22;2117;47.972;7.830;2023-03-14T00:03:32;11.00;99.90
4207;DHT22;2117;47.972;7.830;2023-03-14T00:06:02;11.00;99.90
4207;DHT22;2117;47.972;7.830;2023-03-14T00:10:54;11.00;99.90
4207;DHT22;2117;47.972;7.830;2023-03-14T00:13:19;11.00;99.90
4207;DHT22;2117;47.972;7.830;2023-03-14T00:15:45;11.00;99.90
4207;DHT22;2117;47.972;7.830;2023-03-14T00:18:10;11.00;99.90
4207;DHT22;2117;47.972;7.830;2023-03-14T00:20:36;11.00;99.90
4207;DHT22;2117;47.972;7.830;2023-03-14T00:23:01;11.00;99.90
4207;DHT22;2117;47.972;7.830;2023-03-14T00:25:27;11.00;99.90
4207;DHT22;2117;47.972;7.830;2023-03-14T00:27:53;11.00;99.90
4207;DHT22;2117;47.972;7.830;2023-03-14T00:30:19;11.00;99.90
4207;DHT22;2117;47.972;7.830;2023-03-14T00:32:44;11.10;99.90
4207;DHT22;2117;47.972;7.830;2023-03-14T00:35:10;11.10;99.90
4207;DHT22;2117;47.972;7.830;2023-03-14T00:37:36;11.30;99.90
4207;DHT22;2117;47.972;7.830;2023-03-14T00:40:01;11.30;99.90
4207;DHT22;2117;47.972;7.830;2023-03-14T00:42:27;11.30;99.90
4207;DHT22;2117;47.972;7.830;2023-03-14T00:44:53;11.30;99.90
4207;DHT22;2117;47.972;7.830;2023-03-14T00:47:18;11.30;99.90
4207;DHT22;2117;47.972;7.830;2023-03-14T00:49:44;11.30;99.90
4207;DHT22;2117;47.972;7.830;2023-03-14T00:52:09;11.30;99.90
4207;DHT22;2117;47.972;7.830;2023-03-14T00:54:35;11.40;99.90
4207;DHT22;2117;47.972;7.830;2023-03-14T00:57:00;11.40;99.90
4207;DHT22;2117;47.972;7.830;2023-03-14T00:59:26;11.40;99.90
4207;DHT22;2117;47.972;7.830;2023-03-14T01:01:51;11.40;99.90
4207;DHT22;2117;47.972;7.830;2023-03-14T01:04:17;11.30;99.90
4207;DHT22;2117;47.972;7.830;2023-03-14T01:06:42;11.30;99.90
4207;DHT22;2117;47.972;7.830;2023-03-14T01:09:08;11.30;99.90
4207;DHT22;2117;47.972;7.830;2023-03-14T01:11:35;11.20;99.90
4207;DHT22;2117;47.972;7.830;2023-03-14T01:14:02;11.20;99.90
4207;DHT22;2117;47.972;7.830;2023-03-14T01:16:30;11.20;99.90
4207;DHT22;2117;47.972;7.830;2023-03-14T01:18:56;11.20;99.90
4207;DHT22;2117;47.972;7.830;2023-03-14T01:21:28;11.20;99.90
4207;DHT22;2117;47.972;7.830;2023-03-14T01:23:55;11.20;99.90
4207;DHT22;2117;47.972;7.830;2023-03-14T01:26:23;11.20;99.90
4207;DHT22;2117;47.972;7.830;2023-03-14T01:28:50;11.20;99.90
4207;DHT22;2117;47.972;7.830;2023-03-14T01:31:17;11.20;99.90
4207;DHT22;2117;47.972;7.830;2023-03-14T01:33:42;11.20;99.90
4207;DHT22;2117;47.972;7.830;2023-03-14T01:36:09;11.20;99.90
4207;DHT22;2117;47.972;7.830;2023-03-14T01:38:37;11.20;99.90
4207;DHT22;2117;47.972;7.830;2023-03-14T01:41:03;11.10;99.90
4207;DHT22;2117;47.972;7.830;2023-03-14T01:43:30;11.10;99.90
4207;DHT22;2117;47.972;7.830;2023-03-14T01:53:50;10.70;99.90
4207;DHT22;2117;47.972;7.830;2023-03-14T01:56:18;10.60;99.90
4207;DHT22;2117;47.972;7.830;2023-03-14T01:58:46;10.60;99.90
4207;DHT22;2117;47.972;7.830;2023-03-14T02:01:15;10.60;99.90
4207;DHT22;2117;47.972;7.830;2023-03-14T02:03:56;10.50;99.90
4207;DHT22;2117;47.972;7.830;2023-03-14T02:06:31;10.50;99.90
4207;DHT22;2117;47.972;7.830;2023-03-14T02:09:00;10.50;99.90
4207;DHT22;2117;47.972;7.830;2023-03-14T02:11:28;10.50;99.90
4207;DHT22;2117;47.972;7.830;2023-03-14T02:13:54;10.50;99.90
4207;DHT22;2117;47.972;7.830;2023-03-14T02:16:20;10.50;99.90
4207;DHT22;2117;47.972;7.830;2023-03-14T02:18:46;10.50;99.90
4207;DHT22;2117;47.972;7.830;2023-03-14T02:27:14;10.50;99.90
4207;DHT22;2117;47.972;7.830;2023-03-14T02:30:03;10.50;99.90
4207;DHT22;2117;47.972;7.830;2023-03-14T02:32:32;10.60;99.90
4207;DHT22;2117;47.972;7.830;2023-03-14T02:35:03;10.60;99.90
4207;DHT22;2117;47.972;7.830;2023-03-14T02:38:01;10.70;99.90
4207;DHT22;2117;47.972;7.830;2023-03-14T02:40:24;10.70;99.90
4207;DHT22;2117;47.972;7.830;2023-03-14T02:42:50;10.70;99.90
4207;DHT22;2117;47.972;7.830;2023-03-14T02:47:49;10.80;99.90
4207;DHT22;2117;47.972;7.830;2023-03-14T02:50:20;10.80;99.90
4207;DHT22;2117;47.972;7.830;2023-03-14T02:52:45;10.80;99.90
4207;DHT22;2117;47.972;7.830;2023-03-14T02:55:11;10.80;99.90
4207;DHT22;2117;47.972;7.830;2023-03-14T02:57:37;10.80;99.90
4207;DHT22;2117;47.972;7.830;2023-03-14T03:00:03;10.80;99.90
4207;DHT22;2117;47.972;7.830;2023-03-14T03:02:30;10.80;99.90
4207;DHT22;2117;47.972;7.830;2023-03-14T03:04:56;10.90;99.90
4207;DHT22;2117;47.972;7.830;2023-03-14T03:07:22;10.80;99.90
4207;DHT22;2117;47.972;7.830;2023-03-14T03:09:47;10.80;99.90
4207;DHT22;2117;47.972;7.830;2023-03-14T03:12:13;10.90;99.90
4207;DHT22;2117;47.972;7.830;2023-03-14T03:14:38;10.90;99.90
4207;DHT22;2117;47.972;7.830;2023-03-14T03:17:04;10.80;99.90
4207;DHT22;2117;47.972;7.830;2023-03-14T03:19:31;10.80;99.90
4207;DHT22;2117;47.972;7.830;2023-03-14T03:21:57;10.90;99.90
4207;DHT22;2117;47.972;7.830;2023-03-14T03:24:23;10.90;99.90
4207;DHT22;2117;47.972;7.830;2023-03-14T03:26:48;10.90;99.90
4207;DHT22;2117;47.972;7.830;2023-03-14T03:29:14;10.80;99.90
4207;DHT22;2117;47.972;7.830;2023-03-14T03:31:40;10.90;99.90
4207;DHT22;2117;47.972;7.830;2023-03-14T03:34:06;10.90;99.90
4207;DHT22;2117;47.972;7.830;2023-03-14T03:36:31;10.90;99.90
4207;DHT22;2117;47.972;7.830;2023-03-14T03:38:57;10.90;99.90
4207;DHT22;2117;47.972;7.830;2023-03-14T03:41:22;10.90;99.90
4207;DHT22;2117;47.972;7.830;2023-03-14T03:43:48;10.90;99.90
4207;DHT22;2117;47.972;7.830;2023-03-14T03:46:14;11.00;99.90
4207;DHT22;2117;47.972;7.830;2023-03-14T03:48:39;11.00;99.90
4207;DHT22;2117;47.972;7.830;2023-03-14T03:51:05;10.90;99.90
4207;DHT22;2117;47.972;7.830;2023-03-14T03:53:31;10.90;99.90
4207;DHT22;2117;47.972;7.830;2023-03-14T03:55:56;11.00;99.90
4207;DHT22;2117;47.972;7.830;2023-03-14T03:58:22;10.90;99.90
4207;DHT22;2117;47.972;7.830;2023-03-14T04:00:48;10.90;99.90
4207;DHT22;2117;47.972;7.830;2023-03-14T04:03:14;10.90;99.90
4207;DHT22;2117;47.972;7.830;2023-03-14T04:05:39;10.90;99.90
4207;DHT22;2117;47.972;7.830;2023-03-14T04:08:05;10.90;99.90
4207;DHT22;2117;47.972;7.830;2023-03-14T04:10:34;10.90;99.90
4207;DHT22;2117;47.972;7.830;2023-03-14T04:12:59;10.90;99.90
4207;DHT22;2117;47.972;7.830;2023-03-14T04:15:25;10.90;99.90
4207;DHT22;2117;47.972;7.830;2023-03-14T04:17:50;10.90;99.90
4207;DHT22;2117;47.972;7.830;2023-03-14T04:20:16;10.90;99.90
4207;DHT22;2117;47.972;7.830;2023-03-14T04:22:42;10.90;99.90
4207;DHT22;2117;47.972;7.830;2023-03-14T04:25:07;10.90;99.90
4207;DHT22;2117;47.972;7.830;2023-03-14T04:27:33;10.90;99.90
4207;DHT22;2117;47.972;7.830;2023-03-14T04:29:58;10.90;99.90
4207;DHT22;2117;47.972;7.830;2023-03-14T04:32:24;10.90;99.90
4207;DHT22;2117;47.972;7.830;2023-03-14T04:34:49;10.90;99.90
4207;DHT22;2117;47.972;7.830;2023-03-14T04:37:15;11.00;99.90
4207;DHT22;2117;47.972;7.830;2023-03-14T04:39:41;10.90;99.90
4207;DHT22;2117;47.972;7.830;2023-03-14T04:42:06;10.90;99.90
4207;DHT22;2117;47.972;7.830;2023-03-14T04:44:32;11.00;99.90
4207;DHT22;2117;47.972;7.830;2023-03-14T04:46:58;10.90;99.90
4207;DHT22;2117;47.972;7.830;2023-03-14T04:49:23;10.90;99.90
4207;DHT22;2117;47.972;7.830;2023-03-14T04:51:49;10.90;99.90
4207;DHT22;2117;47.972;7.830;2023-03-14T04:54:17;10.90;99.90
4207;DHT22;2117;47.972;7.830;2023-03-14T04:56:42;10.90;99.90
4207;DHT22;2117;47.972;7.830;2023-03-14T04:59:08;10.90;99.90
4207;DHT22;2117;47.972;7.830;2023-03-14T05:01:34;10.90;99.90
4207;DHT22;2117;47.972;7.830;2023-03-14T05:03:59;10.90;99.90
4207;DHT22;2117;47.972;7.830;2023-03-14T05:06:25;10.80;99.90
4207;DHT22;2117;47.972;7.830;2023-03-14T05:08:51;10.90;99.90
4207;DHT22;2117;47.972;7.830;2023-03-14T05:11:16;10.90;99.90
4207;DHT22;2117;47.972;7.830;2023-03-14T05:13:42;10.80;99.90
4207;DHT22;2117;47.972;7.830;2023-03-14T05:16:09;10.80;99.90
4207;DHT22;2117;47.972;7.830;2023-03-14T05:18:36;10.80;99.90
4207;DHT22;2117;47.972;7.830;2023-03-14T05:21:02;10.90;99.90
4207;DHT22;2117;47.972;7.830;2023-03-14T05:23:28;10.90;99.90
4207;DHT22;2117;47.972;7.830;2023-03-14T05:25:53;10.90;99.90
4207;DHT22;2117;47.972;7.830;2023-03-14T05:28:19;10.90;99.90
4207;DHT22;2117;47.972;7.830;2023-03-14T05:30:44;10.80;99.90
4207;DHT22;2117;47.972;7.830;2023-03-14T05:33:10;10.90;99.90
4207;DHT22;2117;47.972;7.830;2023-03-14T05:35:36;10.90;99.90
4207;DHT22;2117;47.972;7.830;2023-03-14T05:38:01;10.90;99.90
4207;DHT22;2117;47.972;7.830;2023-03-14T05:40:27;10.90;99.90
4207;DHT22;2117;47.972;7.830;2023-03-14T05:42:52;10.90;99.90
4207;DHT22;2117;47.972;7.830;2023-03-14T05:45:18;10.90;99.90
4207;DHT22;2117;47.972;7.830;2023-03-14T05:47:44;11.00;99.90
4207;DHT22;2117;47.972;7.830;2023-03-14T05:50:10;11.00;99.90
4207;DHT22;2117;47.972;7.830;2023-03-14T05:52:36;11.00;99.90
4207;DHT22;2117;47.972;7.830;2023-03-14T05:55:02;11.00;99.90
4207;DHT22;2117;47.972;7.830;2023-03-14T05:57:27;10.90;99.90
4207;DHT22;2117;47.972;7.830;2023-03-14T05:59:53;11.00;99.90
4207;DHT22;2117;47.972;7.830;2023-03-14T06:02:18;11.00;99.90
4207;DHT22;2117;47.972;7.830;2023-03-14T06:04:44;11.00;99.90
4207;DHT22;2117;47.972;7.830;2023-03-14T06:07:09;11.00;99.90
4207;DHT22;2117;47.972;7.830;2023-03-14T06:09:35;11.00;99.90
4207;DHT22;2117;47.972;7.830;2023-03-14T06:12:01;11.10;99.90
4207;DHT22;2117;47.972;7.830;2023-03-14T06:14:26;11.00;99.90
4207;DHT22;2117;47.972;7.830;2023-03-14T06:16:52;11.10;99.90
4207;DHT22;2117;47.972;7.830;2023-03-14T06:19:18;11.00;99.90
4207;DHT22;2117;47.972;7.830;2023-03-14T06:21:45;11.10;99.90
4207;DHT22;2117;47.972;7.830;2023-03-14T06:24:10;11.10;99.90
4207;DHT22;2117;47.972;7.830;2023-03-14T06:26:36;11.10;99.90
4207;DHT22;2117;47.972;7.830;2023-03-14T06:29:02;11.20;99.90
4207;DHT22;2117;47.972;7.830;2023-03-14T06:31:29;11.20;99.90
4207;DHT22;2117;47.972;7.830;2023-03-14T06:33:55;11.20;99.90
4207;DHT22;2117;47.972;7.830;2023-03-14T06:36:21;11.20;99.90
4207;DHT22;2117;47.972;7.830;2023-03-14T06:38:47;11.20;99.90
4207;DHT22;2117;47.972;7.830;2023-03-14T06:41:12;11.20;99.90
4207;DHT22;2117;47.972;7.830;2023-03-14T06:43:38;11.30;99.90
4207;DHT22;2117;47.972;7.830;2023-03-14T06:46:03;11.30;99.90
4207;DHT22;2117;47.972;7.830;2023-03-14T06:48:29;11.30;99.90
4207;DHT22;2117;47.972;7.830;2023-03-14T06:50:55;11.40;99.90
4207;DHT22;2117;47.972;7.830;2023-03-14T06:53:20;11.40;99.90
4207;DHT22;2117;47.972;7.830;2023-03-14T06:55:46;11.40;99.90
4207;DHT22;2117;47.972;7.830;2023-03-14T06:58:11;11.50;99.90
4207;DHT22;2117;47.972;7.830;2023-03-14T07:00:37;11.50;99.90
4207;DHT22;2117;47.972;7.830;2023-03-14T07:03:02;11.60;99.90
4207;DHT22;2117;47.972;7.830;2023-03-14T07:05:28;11.60;99.90
4207;DHT22;2117;47.972;7.830;2023-03-14T07:07:54;11.70;99.90
4207;DHT22;2117;47.972;7.830;2023-03-14T07:10:20;11.80;99.90
4207;DHT22;2117;47.972;7.830;2023-03-14T07:12:45;11.70;99.90
4207;DHT22;2117;47.972;7.830;2023-03-14T07:15:11;11.80;99.90
4207;DHT22;2117;47.972;7.830;2023-03-14T07:17:37;11.80;99.90
4207;DHT22;2117;47.972;7.830;2023-03-14T07:20:03;11.90;99.90
4207;DHT22;2117;47.972;7.830;2023-03-14T07:22:30;12.00;99.90
4207;DHT22;2117;47.972;7.830;2023-03-14T07:24:56;12.00;99.90
4207;DHT22;2117;47.972;7.830;2023-03-14T07:27:21;12.10;99.90
4207;DHT22;2117;47.972;7.830;2023-03-14T07:29:47;12.00;99.90
4207;DHT22;2117;47.972;7.830;2023-03-14T07:32:12;12.10;99.90
4207;DHT22;2117;47.972;7.830;2023-03-14T07:34:41;12.20;99.90
4207;DHT22;2117;47.972;7.830;2023-03-14T07:37:06;12.20;99.90
4207;DHT22;2117;47.972;7.830;2023-03-14T07:39:32;12.20;99.90
4207;DHT22;2117;47.972;7.830;2023-03-14T07:41:58;12.30;99.90
4207;DHT22;2117;47.972;7.830;2023-03-14T07:44:23;12.30;99.90
4207;DHT22;2117;47.972;7.830;2023-03-14T07:46:49;12.30;99.90
4207;DHT22;2117;47.972;7.830;2023-03-14T07:49:14;12.30;99.90
4207;DHT22;2117;47.972;7.830;2023-03-14T07:51:40;12.30;99.90
4207;DHT22;2117;47.972;7.830;2023-03-14T07:54:05;12.30;99.90
4207;DHT22;2117;47.972;7.830;2023-03-14T07:56:31;12.30;99.90
4207;DHT22;2117;47.972;7.830;2023-03-14T07:58:57;12.30;99.90
4207;DHT22;2117;47.972;7.830;2023-03-14T08:01:23;12.20;99.90
4207;DHT22;2117;47.972;7.830;2023-03-14T08:03:48;12.10;99.90
4207;DHT22;2117;47.972;7.830;2023-03-14T08:06:14;12.00;99.90
4207;DHT22;2117;47.972;7.830;2023-03-14T08:08:39;12.00;99.90
4207;DHT22;2117;47.972;7.830;2023-03-14T08:11:06;12.00;99.90
4207;DHT22;2117;47.972;7.830;2023-03-14T08:13:34;12.00;99.90
4207;DHT22;2117;47.972;7.830;2023-03-14T08:16:00;11.90;99.90
4207;DHT22;2117;47.972;7.830;2023-03-14T08:18:25;11.90;99.90
4207;DHT22;2117;47.972;7.830;2023-03-14T08:20:51;11.90;99.90
4207;DHT22;2117;47.972;7.830;2023-03-14T08:23:16;11.90;99.90
4207;DHT22;2117;47.972;7.830;2023-03-14T08:25:42;11.80;99.90
4207;DHT22;2117;47.972;7.830;2023-03-14T08:28:08;11.80;99.90
4207;DHT22;2117;47.972;7.830;2023-03-14T08:30:34;11.80;99.90
4207;DHT22;2117;47.972;7.830;2023-03-14T08:32:59;11.70;99.90
4207;DHT22;2117;47.972;7.830;2023-03-14T08:35:26;11.80;99.90
4207;DHT22;2117;47.972;7.830;2023-03-14T08:37:52;11.80;99.90
4207;DHT22;2117;47.972;7.830;2023-03-14T08:40:18;11.70;99.90
4207;DHT22;2117;47.972;7.830;2023-03-14T08:42:44;11.70;99.90
4207;DHT22;2117;47.972;7.830;2023-03-14T08:45:12;11.70;99.90
4207;DHT22;2117;47.972;7.830;2023-03-14T08:47:38;11.70;99.90
4207;DHT22;2117;47.972;7.830;2023-03-14T08:50:05;11.60;99.90
4207;DHT22;2117;47.972;7.830;2023-03-14T08:52:31;11.60;99.90
4207;DHT22;2117;47.972;7.830;2023-03-14T08:54:57;11.60;99.90
4207;DHT22;2117;47.972;7.830;2023-03-14T08:57:24;11.60;99.90
4207;DHT22;2117;47.972;7.830;2023-03-14T08:59:53;11.70;99.90
4207;DHT22;2117;47.972;7.830;2023-03-14T09:02:20;11.80;99.90
4207;DHT22;2117;47.972;7.830;2023-03-14T09:04:46;11.80;99.90
4207;DHT22;2117;47.972;7.830;2023-03-14T09:07:11;11.80;99.90
4207;DHT22;2117;47.972;7.830;2023-03-14T09:09:37;11.90;99.90
4207;DHT22;2117;47.972;7.830;2023-03-14T09:12:02;11.90;99.90
4207;DHT22;2117;47.972;7.830;2023-03-14T09:14:28;11.90;99.90
4207;DHT22;2117;47.972;7.830;2023-03-14T09:16:54;11.90;99.90
4207;DHT22;2117;47.972;7.830;2023-03-14T09:19:20;11.90;99.90
4207;DHT22;2117;47.972;7.830;2023-03-14T09:21:46;11.80;99.90
4207;DHT22;2117;47.972;7.830;2023-03-14T09:24:12;11.80;99.90
4207;DHT22;2117;47.972;7.830;2023-03-14T09:26:37;11.80;99.90
4207;DHT22;2117;47.972;7.830;2023-03-14T09:29:03;11.80;99.90
4207;DHT22;2117;47.972;7.830;2023-03-14T09:31:29;11.90;99.90
4207;DHT22;2117;47.972;7.830;2023-03-14T09:33:55;11.80;99.90
4207;DHT22;2117;47.972;7.830;2023-03-14T09:36:20;11.80;99.90
4207;DHT22;2117;47.972;7.830;2023-03-14T09:38:46;11.80;99.90
4207;DHT22;2117;47.972;7.830;2023-03-14T09:41:25;11.80;99.90
4207;DHT22;2117;47.972;7.830;2023-03-14T09:44:43;11.80;99.90
4207;DHT22;2117;47.972;7.830;2023-03-14T09:46:45;11.80;99.90
4207;DHT22;2117;47.972;7.830;2023-03-14T09:49:27;11.70;99.90
4207;DHT22;2117;47.972;7.830;2023-03-14T09:51:55;11.70;99.90
4207;DHT22;2117;47.972;7.830;2023-03-14T09:54:37;11.70;99.90
4207;DHT22;2117;47.972;7.830;2023-03-14T09:57:05;11.70;99.90
4207;DHT22;2117;47.972;7.830;2023-03-14T09:59:30;11.60;99.90
4207;DHT22;2117;47.972;7.830;2023-03-14T10:02:01;11.50;99.90
4207;DHT22;2117;47.972;7.830;2023-03-14T10:04:27;11.50;99.90
4207;DHT22;2117;47.972;7.830;2023-03-14T10:06:55;11.50;99.90
4207;DHT22;2117;47.972;7.830;2023-03-14T10:09:23;11.40;99.90
4207;DHT22;2117;47.972;7.830;2023-03-14T10:11:58;11.30;99.90
4207;DHT22;2117;47.972;7.830;2023-03-14T10:14:38;11.30;99.90
4207;DHT22;2117;47.972;7.830;2023-03-14T10:17:13;11.30;99.90
4207;DHT22;2117;47.972;7.830;2023-03-14T10:19:58;11.30;99.90
4207;DHT22;2117;47.972;7.830;2023-03-14T10:22:27;11.20;99.90
4207;DHT22;2117;47.972;7.830;2023-03-14T10:25:05;11.20;99.90
4207;DHT22;2117;47.972;7.830;2023-03-14T10:27:34;11.20;99.90
4207;DHT22;2117;47.972;7.830;2023-03-14T10:30:03;11.10;99.90
4207;DHT22;2117;47.972;7.830;2023-03-14T10:32:37;11.10;99.90
4207;DHT22;2117;47.972;7.830;2023-03-14T10:38:00;11.10;99.90
4207;DHT22;2117;47.972;7.830;2023-03-14T10:40:36;11.10;99.90
4207;DHT22;2117;47.972;7.830;2023-03-14T10:43:05;11.10;99.90
4207;DHT22;2117;47.972;7.830;2023-03-14T10:45:44;11.00;99.90
4207;DHT22;2117;47.972;7.830;2023-03-14T10:50:48;11.00;99.90
4207;DHT22;2117;47.972;7.830;2023-03-14T10:53:17;10.90;99.90
4207;DHT22;2117;47.972;7.830;2023-03-14T10:55:44;10.90;99.90
4207;DHT22;2117;47.972;7.830;2023-03-14T10:58:27;10.90;99.90
4207;DHT22;2117;47.972;7.830;2023-03-14T11:01:03;10.90;99.90
4207;DHT22;2117;47.972;7.830;2023-03-14T11:03:33;11.00;99.90
4207;DHT22;2117;47.972;7.830;2023-03-14T11:11:47;10.90;99.90
4207;DHT22;2117;47.972;7.830;2023-03-14T11:14:23;10.90;99.90
4207;DHT22;2117;47.972;7.830;2023-03-14T11:17:30;10.90;99.90
4207;DHT22;2117;47.972;7.830;2023-03-14T11:20:24;10.90;99.90
4207;DHT22;2117;47.972;7.830;2023-03-14T11:23:09;10.90;99.90
4207;DHT22;2117;47.972;7.830;2023-03-14T11:25:56;10.80;99.90
4207;DHT22;2117;47.972;7.830;2023-03-14T11:28:37;10.70;99.90
4207;DHT22;2117;47.972;7.830;2023-03-14T11:31:26;10.60;99.90
4207;DHT22;2117;47.972;7.830;2023-03-14T11:36:43;10.60;99.90
4207;DHT22;2117;47.972;7.830;2023-03-14T11:39:17;10.60;99.90
4207;DHT22;2117;47.972;7.830;2023-03-14T11:41:47;9.60;99.90
4207;DHT22;2117;47.972;7.830;2023-03-14T11:44:22;9.40;99.90
4207;DHT22;2117;47.972;7.830;2023-03-14T11:46:57;9.00;99.90
4207;DHT22;2117;47.972;7.830;2023-03-14T11:52:32;8.70;99.90
4207;DHT22;2117;47.972;7.830;2023-03-14T11:55:05;8.50;99.90
4207;DHT22;2117;47.972;7.830;2023-03-14T11:57:32;8.50;99.90
4207;DHT22;2117;47.972;7.830;2023-03-14T12:00:02;8.50;99.90
4207;DHT22;2117;47.972;7.830;2023-03-14T12:10:09;8.70;99.90
4207;DHT22;2117;47.972;7.830;2023-03-14T12:12:35;8.80;99.90
4207;DHT22;2117;47.972;7.830;2023-03-14T12:15:03;8.80;99.90
4207;DHT22;2117;47.972;7.830;2023-03-14T12:17:40;8.70;99.90
4207;DHT22;2117;47.972;7.830;2023-03-14T12:20:19;8.80;99.90
4207;DHT22;2117;47.972;7.830;2023-03-14T12:22:56;8.90;99.90
4207;DHT22;2117;47.972;7.830;2023-03-14T12:25:28;9.10;99.90
4207;DHT22;2117;47.972;7.830;2023-03-14T12:30:25;9.80;99.90
4207;DHT22;2117;47.972;7.830;2023-03-14T12:35:58;10.00;99.90
4207;DHT22;2117;47.972;7.830;2023-03-14T12:38:27;10.00;99.90
4207;DHT22;2117;47.972;7.830;2023-03-14T12:43:34;10.20;99.90
4207;DHT22;2117;47.972;7.830;2023-03-14T12:48:45;10.90;99.90
4207;DHT22;2117;47.972;7.830;2023-03-14T12:51:13;11.10;99.90
4207;DHT22;2117;47.972;7.830;2023-03-14T12:59:32;10.90;99.90
4207;DHT22;2117;47.972;7.830;2023-03-14T13:02:20;10.80;99.90
4207;DHT22;2117;47.972;7.830;2023-03-14T13:05:00;10.70;99.90
4207;DHT22;2117;47.972;7.830;2023-03-14T13:15:48;10.00;99.90
4207;DHT22;2117;47.972;7.830;2023-03-14T13:18:36;9.70;99.90
4207;DHT22;2117;47.972;7.830;2023-03-14T13:23:31;9.70;99.90
4207;DHT22;2117;47.972;7.830;2023-03-14T13:25:59;9.70;99.90
4207;DHT22;2117;47.972;7.830;2023-03-14T13:28:26;9.80;99.90
4207;DHT22;2117;47.972;7.830;2023-03-14T13:31:02;9.90;99.90
4207;DHT22;2117;47.972;7.830;2023-03-14T13:33:29;10.00;99.90
4207;DHT22;2117;47.972;7.830;2023-03-14T13:38:28;9.80;99.90
4207;DHT22;2117;47.972;7.830;2023-03-14T13:40:56;9.70;99.90
4207;DHT22;2117;47.972;7.830;2023-03-14T13:43:33;9.70;99.90
4207;DHT22;2117;47.972;7.830;2023-03-14T13:46:25;9.70;99.90
4207;DHT22;2117;47.972;7.830;2023-03-14T13:48:57;9.80;99.90
4207;DHT22;2117;47.972;7.830;2023-03-14T13:51:24;9.90;99.90
4207;DHT22;2117;47.972;7.830;2023-03-14T13:53:54;9.80;99.90
4207;DHT22;2117;47.972;7.830;2023-03-14T13:56:22;9.80;99.90
4207;DHT22;2117;47.972;7.830;2023-03-14T13:58:49;9.80;99.90
4207;DHT22;2117;47.972;7.830;2023-03-14T14:01:30;9.70;99.90
4207;DHT22;2117;47.972;7.830;2023-03-14T14:03:59;9.70;99.90
4207;DHT22;2117;47.972;7.830;2023-03-14T14:06:37;9.70;99.90
4207;DHT22;2117;47.972;7.830;2023-03-14T14:09:11;9.70;99.90
4207;DHT22;2117;47.972;7.830;2023-03-14T14:11:47;9.70;99.90
4207;DHT22;2117;47.972;7.830;2023-03-14T14:14:22;9.60;99.90
4207;DHT22;2117;47.972;7.830;2023-03-14T14:16:49;9.50;99.90
4207;DHT22;2117;47.972;7.830;2023-03-14T14:19:17;9.50;99.90
4207;DHT22;2117;47.972;7.830;2023-03-14T14:21:45;9.40;99.90
4207;DHT22;2117;47.972;7.830;2023-03-14T14:24:15;9.30;99.90
4207;DHT22;2117;47.972;7.830;2023-03-14T14:26:47;9.30;99.90
4207;DHT22;2117;47.972;7.830;2023-03-14T14:29:30;9.30;99.90
4207;DHT22;2117;47.972;7.830;2023-03-14T14:34:42;9.40;99.90
4207;DHT22;2117;47.972;7.830;2023-03-14T14:37:25;9.60;99.90
4207;DHT22;2117;47.972;7.830;2023-03-14T14:39:53;9.70;99.90
4207;DHT22;2117;47.972;7.830;2023-03-14T14:42:20;9.80;99.90
4207;DHT22;2117;47.972;7.830;2023-03-14T14:44:48;9.90;99.90
4207;DHT22;2117;47.972;7.830;2023-03-14T14:47:19;10.10;99.90
4207;DHT22;2117;47.972;7.830;2023-03-14T14:49:47;10.70;99.90
4207;DHT22;2117;47.972;7.830;2023-03-14T14:52:18;11.20;99.90
4207;DHT22;2117;47.972;7.830;2023-03-14T14:54:51;11.20;99.90
4207;DHT22;2117;47.972;7.830;2023-03-14T14:57:22;11.20;99.90
4207;DHT22;2117;47.972;7.830;2023-03-14T14:59:49;11.20;99.90
4207;DHT22;2117;47.972;7.830;2023-03-14T15:05:05;11.00;99.90
4207;DHT22;2117;47.972;7.830;2023-03-14T15:07:31;10.90;99.90
4207;DHT22;2117;47.972;7.830;2023-03-14T15:09:57;11.20;99.90
4207;DHT22;2117;47.972;7.830;2023-03-14T15:12:22;11.70;99.90
4207;DHT22;2117;47.972;7.830;2023-03-14T15:14:50;12.10;99.90
4207;DHT22;2117;47.972;7.830;2023-03-14T15:17:15;12.50;99.90
4207;DHT22;2117;47.972;7.830;2023-03-14T15:19:41;12.70;99.90
4207;DHT22;2117;47.972;7.830;2023-03-14T15:22:12;13.10;99.90
4207;DHT22;2117;47.972;7.830;2023-03-14T15:24:39;13.10;99.90
4207;DHT22;2117;47.972;7.830;2023-03-14T15:27:15;13.30;99.90
4207;DHT22;2117;47.972;7.830;2023-03-14T15:29:41;13.60;99.90
4207;DHT22;2117;47.972;7.830;2023-03-14T15:32:13;13.50;99.90
4207;DHT22;2117;47.972;7.830;2023-03-14T15:34:39;13.50;99.90
4207;DHT22;2117;47.972;7.830;2023-03-14T15:37:07;13.40;99.90
4207;DHT22;2117;47.972;7.830;2023-03-14T15:39:34;13.40;99.90
4207;DHT22;2117;47.972;7.830;2023-03-14T15:42:00;13.50;99.90
4207;DHT22;2117;47.972;7.830;2023-03-14T15:44:25;13.50;99.90
4207;DHT22;2117;47.972;7.830;2023-03-14T15:46:51;13.40;99.90
4207;DHT22;2117;47.972;7.830;2023-03-14T15:49:17;13.60;99.90
4207;DHT22;2117;47.972;7.830;2023-03-14T15:51:42;13.30;99.90
4207;DHT22;2117;47.972;7.830;2023-03-14T15:54:08;13.00;99.90
4207;DHT22;2117;47.972;7.830;2023-03-14T15:56:33;12.80;99.90
4207;DHT22;2117;47.972;7.830;2023-03-14T15:58:59;12.70;99.90
4207;DHT22;2117;47.972;7.830;2023-03-14T16:01:25;12.50;99.90
4207;DHT22;2117;47.972;7.830;2023-03-14T16:03:52;12.10;99.90
4207;DHT22;2117;47.972;7.830;2023-03-14T16:06:18;11.90;99.90
4207;DHT22;2117;47.972;7.830;2023-03-14T16:08:45;11.70;99.90
4207;DHT22;2117;47.972;7.830;2023-03-14T16:11:12;11.60;99.90
4207;DHT22;2117;47.972;7.830;2023-03-14T16:13:40;11.60;99.90
4207;DHT22;2117;47.972;7.830;2023-03-14T16:16:06;11.40;99.90
4207;DHT22;2117;47.972;7.830;2023-03-14T16:18:34;11.30;99.90
4207;DHT22;2117;47.972;7.830;2023-03-14T16:21:06;11.20;99.90
4207;DHT22;2117;47.972;7.830;2023-03-14T16:23:33;11.10;99.90
4207;DHT22;2117;47.972;7.830;2023-03-14T16:26:02;11.00;99.90
4207;DHT22;2117;47.972;7.830;2023-03-14T16:28:27;10.90;99.90
4207;DHT22;2117;47.972;7.830;2023-03-14T16:30:59;10.90;99.90
4207;DHT22;2117;47.972;7.830;2023-03-14T16:33:25;10.60;99.90
4207;DHT22;2117;47.972;7.830;2023-03-14T16:35:55;10.20;99.90
4207;DHT22;2117;47.972;7.830;2023-03-14T16:38:22;10.10;99.90
4207;DHT22;2117;47.972;7.830;2023-03-14T16:40:58;9.80;99.90
4207;DHT22;2117;47.972;7.830;2023-03-14T16:43:25;9.70;99.90
4207;DHT22;2117;47.972;7.830;2023-03-14T16:45:50;9.70;99.90
4207;DHT22;2117;47.972;7.830;2023-03-14T16:48:16;9.50;99.90
4207;DHT22;2117;47.972;7.830;2023-03-14T16:50:41;9.50;99.90
4207;DHT22;2117;47.972;7.830;2023-03-14T16:53:07;9.50;99.90
4207;DHT22;2117;47.972;7.830;2023-03-14T16:55:33;9.40;99.90
4207;DHT22;2117;47.972;7.830;2023-03-14T16:57:58;9.30;99.90
4207;DHT22;2117;47.972;7.830;2023-03-14T17:00:24;9.30;99.90
4207;DHT22;2117;47.972;7.830;2023-03-14T17:02:49;9.20;99.90
4207;DHT22;2117;47.972;7.830;2023-03-14T17:05:15;9.20;99.90
4207;DHT22;2117;47.972;7.830;2023-03-14T17:07:40;9.40;99.90
4207;DHT22;2117;47.972;7.830;2023-03-14T17:10:06;9.80;99.90
4207;DHT22;2117;47.972;7.830;2023-03-14T17:12:32;10.40;99.90
4207;DHT22;2117;47.972;7.830;2023-03-14T17:14:59;10.90;99.90
4207;DHT22;2117;47.972;7.830;2023-03-14T17:17:24;11.00;99.90
4207;DHT22;2117;47.972;7.830;2023-03-14T17:19:50;11.20;99.90
4207;DHT22;2117;47.972;7.830;2023-03-14T17:22:15;11.30;99.90
4207;DHT22;2117;47.972;7.830;2023-03-14T17:24:41;11.30;99.90
4207;DHT22;2117;47.972;7.830;2023-03-14T17:27:07;11.40;99.90
4207;DHT22;2117;47.972;7.830;2023-03-14T17:29:32;11.20;99.90